Time;durP1;ratioP1;P1;durP2;ratioP2;P2;SDS_P1;SDS_P2;PMS_P1;PMS_P2;Temp;Humidity;BMP_temperature;BMP_pressure;BME280_temperature;BME280_humidity;BME280_pressure;Samples;Min_cycle;Max_cycle;Signal;HPM_P1;HPM_P2
2023/07/12 00:00:28;;;;;;;9.90;9.00;;;;;;;;;;5059425;28;20089;-74
2023/07/12 00:02:54;;;;;;;10.27;9.20;;;;;;;;;;5057696;28;20043;-76
2023/07/12 00:05:20;;;;;;;10.65;9.38;;;;;;;;;;5061747;28;20206;-75
2023/07/12 00:07:45;;;;;;;10.10;9.20;;;;;;;;;;5063130;28;20127;-75
2023/07/12 00:10:15;;;;;;;10.73;9.48;;;;;;;;;;5052920;28;20078;-76
2023/07/12 00:12:40;;;;;;;9.63;8.75;;;;;;;;;;5054115;28;20024;-74
2023/07/12 00:15:06;;;;;;;9.50;8.60;;;;;;;;;;5061985;28;20509;-76
2023/07/12 00:17:31;;;;;;;10.38;9.48;;;;;;;;;;5060641;28;20016;-74
2023/07/12 00:19:57;;;;;;;12.00;8.65;;;;;;;;;;5062885;28;20032;-77
2023/07/12 00:22:23;;;;;;;10.40;9.40;;;;;;;;;;5047292;28;20503;-76
2023/07/12 00:24:48;;;;;;;10.05;9.05;;;;;;;;;;5046168;28;20029;-75
2023/07/12 00:27:13;;;;;;;9.43;8.52;;;;;;;;;;5055118;28;20024;-76
2023/07/12 00:29:39;;;;;;;10.25;9.32;;;;;;;;;;5050742;28;20028;-76
2023/07/12 00:32:04;;;;;;;10.93;9.77;;;;;;;;;;5060085;28;20036;-75
2023/07/12 00:34:30;;;;;;;9.55;8.38;;;;;;;;;;5061690;28;20034;-75
2023/07/12 00:36:55;;;;;;;10.20;9.00;;;;;;;;;;5060546;28;20078;-75
2023/07/12 00:39:20;;;;;;;9.63;8.63;;;;;;;;;;5057123;28;20037;-77
2023/07/12 00:42:04;;;;;;;9.80;9.00;;;;;;;;;;5053318;28;20440;-76
2023/07/12 00:44:29;;;;;;;9.95;8.82;;;;;;;;;;5062057;28;20032;-76
2023/07/12 00:46:56;;;;;;;9.68;8.90;;;;;;;;;;5061614;28;20145;-75
2023/07/12 00:49:22;;;;;;;9.98;8.85;;;;;;;;;;5052691;28;20356;-75
2023/07/12 00:51:47;;;;;;;9.88;8.88;;;;;;;;;;5057520;28;20040;-75
2023/07/12 00:54:14;;;;;;;9.88;8.98;;;;;;;;;;5058991;28;20043;-75
2023/07/12 00:56:40;;;;;;;10.48;9.57;;;;;;;;;;5051318;28;20021;-77
2023/07/12 00:59:08;;;;;;;12.50;8.90;;;;;;;;;;5059175;28;20047;-76
2023/07/12 01:01:35;;;;;;;12.00;8.60;;;;;;;;;;5060873;28;20012;-75
2023/07/12 01:04:02;;;;;;;8.95;8.15;;;;;;;;;;5062365;28;20066;-76
2023/07/12 01:06:28;;;;;;;10.00;9.10;;;;;;;;;;5060008;28;20020;-75
2023/07/12 01:08:54;;;;;;;13.52;9.27;;;;;;;;;;5058587;28;20025;-75
2023/07/12 01:11:21;;;;;;;9.18;8.38;;;;;;;;;;5047705;28;24330;-76
2023/07/12 01:13:49;;;;;;;10.77;9.65;;;;;;;;;;5062207;28;20032;-76
2023/07/12 01:16:15;;;;;;;9.98;9.10;;;;;;;;;;5074263;28;20301;-74
2023/07/12 01:18:40;;;;;;;10.23;9.32;;;;;;;;;;5050971;28;20037;-75
2023/07/12 01:21:06;;;;;;;11.27;10.15;;;;;;;;;;5060134;28;20043;-76
2023/07/12 01:23:31;;;;;;;11.32;9.30;;;;;;;;;;5060966;28;20020;-75
2023/07/12 01:26:15;;;;;;;9.68;8.77;;;;;;;;;;5049439;28;20032;-74
2023/07/12 01:28:41;;;;;;;12.73;9.80;;;;;;;;;;5050619;28;20025;-75
2023/07/12 01:31:07;;;;;;;10.32;9.32;;;;;;;;;;5057755;28;20043;-75
2023/07/12 01:33:32;;;;;;;11.38;8.95;;;;;;;;;;5057527;28;20493;-74
2023/07/12 01:35:57;;;;;;;14.20;9.02;;;;;;;;;;5051361;28;20059;-76
2023/07/12 01:38:23;;;;;;;10.43;9.23;;;;;;;;;;5076531;28;20371;-75
2023/07/12 01:40:48;;;;;;;10.13;9.13;;;;;;;;;;5047457;28;20064;-74
2023/07/12 01:43:14;;;;;;;10.27;9.23;;;;;;;;;;5057238;28;20024;-74
2023/07/12 01:45:39;;;;;;;11.02;9.95;;;;;;;;;;5060301;28;20025;-76
2023/07/12 01:48:05;;;;;;;12.80;9.50;;;;;;;;;;5059639;28;20025;-74
2023/07/12 01:50:30;;;;;;;10.75;9.75;;;;;;;;;;5059174;28;20036;-74
2023/07/12 01:52:55;;;;;;;11.30;9.55;;;;;;;;;;5059637;28;20037;-74
2023/07/12 01:55:21;;;;;;;9.57;8.68;;;;;;;;;;5049599;28;20052;-75
2023/07/12 01:57:46;;;;;;;11.07;9.98;;;;;;;;;;5055197;28;20141;-75
2023/07/12 02:00:11;;;;;;;10.52;9.48;;;;;;;;;;5048374;28;20108;-74
2023/07/12 02:02:37;;;;;;;10.52;9.52;;;;;;;;;;5060235;28;20031;-76
2023/07/12 02:05:02;;;;;;;11.05;9.98;;;;;;;;;;5058974;28;20498;-75
2023/07/12 02:07:27;;;;;;;10.30;9.13;;;;;;;;;;5060588;28;21148;-78
2023/07/12 02:10:16;;;;;;;11.27;8.65;;;;;;;;;;5054490;28;20028;-75
2023/07/12 02:12:42;;;;;;;11.48;9.02;;;;;;;;;;5053279;28;20445;-74
2023/07/12 02:15:07;;;;;;;14.52;9.73;;;;;;;;;;5052019;28;20024;-75
2023/07/12 02:17:33;;;;;;;14.43;9.38;;;;;;;;;;5064323;28;20120;-74
2023/07/12 02:19:58;;;;;;;9.88;8.95;;;;;;;;;;5064499;28;20020;-73
2023/07/12 02:22:23;;;;;;;10.52;9.43;;;;;;;;;;5063916;28;20024;-75
2023/07/12 02:24:49;;;;;;;11.60;10.43;;;;;;;;;;5052660;28;20074;-74
2023/07/12 02:27:14;;;;;;;9.65;8.75;;;;;;;;;;5049860;28;20397;-73
2023/07/12 02:29:39;;;;;;;10.50;9.50;;;;;;;;;;5059063;28;20032;-76
2023/07/12 02:32:05;;;;;;;11.45;10.07;;;;;;;;;;5058127;28;20033;-73
2023/07/12 02:34:30;;;;;;;12.00;9.55;;;;;;;;;;5056638;28;20101;-75
2023/07/12 02:36:56;;;;;;;13.48;9.77;;;;;;;;;;5060030;28;20036;-73
2023/07/12 02:39:21;;;;;;;11.88;10.68;;;;;;;;;;5057343;28;20470;-72
2023/07/12 02:41:46;;;;;;;11.15;10.07;;;;;;;;;;5054738;28;20024;-72
2023/07/12 02:44:12;;;;;;;10.55;9.55;;;;;;;;;;5059381;28;20024;-74
2023/07/12 02:46:37;;;;;;;11.63;10.48;;;;;;;;;;5056850;28;20806;-74
2023/07/12 02:49:03;;;;;;;13.32;10.40;;;;;;;;;;5057646;28;20036;-74
2023/07/12 02:51:28;;;;;;;10.60;9.50;;;;;;;;;;5063364;28;20123;-74
2023/07/12 02:53:53;;;;;;;12.85;10.10;;;;;;;;;;5056099;28;20048;-77
2023/07/12 02:56:19;;;;;;;11.00;10.00;;;;;;;;;;5051603;28;20036;-76
2023/07/12 02:58:44;;;;;;;12.95;10.27;;;;;;;;;;5051963;28;20379;-74
2023/07/12 03:01:09;;;;;;;11.20;10.07;;;;;;;;;;5060479;28;20104;-76
2023/07/12 03:03:35;;;;;;;10.80;9.70;;;;;;;;;;5052470;28;20082;-74
2023/07/12 03:06:04;;;;;;;12.55;9.43;;;;;;;;;;5062909;28;20033;-75
2023/07/12 03:08:29;;;;;;;12.45;10.50;;;;;;;;;;5063366;28;20468;-76
2023/07/12 03:10:57;;;;;;;11.80;9.52;;;;;;;;;;5050175;28;20033;-74
2023/07/12 03:13:22;;;;;;;13.98;10.27;;;;;;;;;;5064173;28;20039;-75
2023/07/12 03:15:47;;;;;;;10.65;9.52;;;;;;;;;;5063216;28;20024;-74
2023/07/12 03:18:13;;;;;;;11.13;10.13;;;;;;;;;;5061895;28;20024;-75
2023/07/12 03:20:38;;;;;;;11.70;10.15;;;;;;;;;;5059376;28;20029;-77
2023/07/12 03:23:04;;;;;;;10.95;9.95;;;;;;;;;;5056826;28;20105;-76
2023/07/12 03:25:29;;;;;;;11.27;10.18;;;;;;;;;;5051914;28;20493;-74
2023/07/12 03:27:54;;;;;;;11.50;10.02;;;;;;;;;;5051161;28;20356;-77
2023/07/12 03:30:20;;;;;;;11.23;10.05;;;;;;;;;;5052473;28;20100;-75
2023/07/12 03:32:45;;;;;;;10.80;9.65;;;;;;;;;;5048382;28;20337;-75
2023/07/12 03:35:11;;;;;;;14.30;10.80;;;;;;;;;;5043713;28;20028;-75
2023/07/12 03:37:36;;;;;;;17.90;10.52;;;;;;;;;;5046640;28;20091;-73
2023/07/12 03:40:02;;;;;;;12.23;10.57;;;;;;;;;;5046891;28;20024;-74
2023/07/12 03:42:27;;;;;;;10.35;9.40;;;;;;;;;;5047351;28;20042;-73
2023/07/12 03:44:52;;;;;;;12.43;10.95;;;;;;;;;;5046584;28;20553;-75
2023/07/12 03:47:18;;;;;;;11.48;10.38;;;;;;;;;;5055550;28;20044;-73
2023/07/12 03:49:43;;;;;;;10.40;9.40;;;;;;;;;;5059629;28;20036;-76
2023/07/12 03:52:09;;;;;;;13.73;9.70;;;;;;;;;;5057371;28;20025;-74
2023/07/12 03:54:34;;;;;;;13.63;10.98;;;;;;;;;;5055751;28;20125;-74
2023/07/12 03:56:59;;;;;;;13.25;10.20;;;;;;;;;;5053477;28;20039;-74
2023/07/12 03:59:25;;;;;;;12.60;11.30;;;;;;;;;;5057139;28;20090;-73
2023/07/12 04:01:50;;;;;;;11.20;10.23;;;;;;;;;;5060096;28;20021;-76
2023/07/12 04:04:15;;;;;;;13.20;11.73;;;;;;;;;;5059272;28;20024;-75
2023/07/12 04:06:40;;;;;;;12.55;11.45;;;;;;;;;;5058933;28;20064;-75
2023/07/12 04:09:06;;;;;;;14.90;12.75;;;;;;;;;;5051401;28;20020;-75
2023/07/12 04:11:32;;;;;;;13.98;12.57;;;;;;;;;;5047022;28;20463;-75
2023/07/12 04:13:59;;;;;;;13.75;12.45;;;;;;;;;;5044282;28;20033;-76
2023/07/12 04:16:25;;;;;;;14.77;13.38;;;;;;;;;;5046729;28;20183;-75
2023/07/12 04:18:50;;;;;;;14.82;13.40;;;;;;;;;;5044502;28;20040;-76
2023/07/12 04:21:16;;;;;;;14.10;12.80;;;;;;;;;;5043453;28;20175;-74
2023/07/12 04:23:41;;;;;;;14.57;12.90;;;;;;;;;;5046079;28;20169;-74
2023/07/12 04:26:07;;;;;;;13.93;12.52;;;;;;;;;;5046315;28;20082;-73
2023/07/12 04:28:33;;;;;;;13.95;12.57;;;;;;;;;;5047571;28;20016;-73
2023/07/12 04:31:03;;;;;;;13.40;12.13;;;;;;;;;;5052982;28;20029;-74
2023/07/12 04:33:28;;;;;;;13.45;12.13;;;;;;;;;;5047097;28;20741;-74
2023/07/12 04:35:54;;;;;;;14.50;13.00;;;;;;;;;;5047383;28;20945;-75
2023/07/12 04:38:19;;;;;;;15.07;11.90;;;;;;;;;;5050680;28;20025;-74
2023/07/12 04:40:51;;;;;;;13.82;12.52;;;;;;;;;;5048607;28;20036;-76
2023/07/12 04:43:16;;;;;;;13.07;11.80;;;;;;;;;;5052765;28;20463;-75
2023/07/12 04:45:42;;;;;;;13.80;12.50;;;;;;;;;;5048831;28;20025;-74
2023/07/12 04:48:09;;;;;;;12.85;11.30;;;;;;;;;;5058048;28;20027;-73
2023/07/12 04:50:34;;;;;;;13.52;12.30;;;;;;;;;;5056895;28;20280;-73
2023/07/12 04:53:00;;;;;;;14.55;12.85;;;;;;;;;;5047362;28;20497;-73
2023/07/12 04:55:26;;;;;;;12.90;11.80;;;;;;;;;;5045604;28;20077;-73
2023/07/12 04:57:51;;;;;;;13.80;12.35;;;;;;;;;;5044942;28;20040;-72
2023/07/12 05:00:17;;;;;;;16.35;12.05;;;;;;;;;;5047147;28;20044;-74
2023/07/12 05:02:43;;;;;;;13.63;12.30;;;;;;;;;;5056373;28;20464;-73
2023/07/12 05:05:08;;;;;;;13.15;11.80;;;;;;;;;;5053934;28;20024;-73
2023/07/12 05:07:34;;;;;;;14.73;12.80;;;;;;;;;;5046819;28;20053;-72
2023/07/12 05:09:59;;;;;;;12.85;11.50;;;;;;;;;;5047973;28;20059;-73
2023/07/12 05:12:24;;;;;;;12.85;10.93;;;;;;;;;;5050800;28;20036;-71
2023/07/12 05:14:50;;;;;;;13.80;11.15;;;;;;;;;;5053797;28;20117;-72
2023/07/12 05:17:15;;;;;;;11.70;10.70;;;;;;;;;;5045321;28;20101;-72
2023/07/12 05:19:41;;;;;;;12.75;10.98;;;;;;;;;;5051796;28;20021;-72
2023/07/12 05:22:06;;;;;;;11.80;10.60;;;;;;;;;;5054550;28;20051;-71
2023/07/12 05:24:31;;;;;;;11.50;10.30;;;;;;;;;;5051255;28;21091;-73
2023/07/12 05:26:58;;;;;;;15.02;9.68;;;;;;;;;;5044894;28;20040;-73
2023/07/12 05:29:23;;;;;;;11.98;10.57;;;;;;;;;;5046033;28;20040;-71
2023/07/12 05:31:49;;;;;;;12.43;11.13;;;;;;;;;;5049708;28;20363;-72
2023/07/12 05:34:14;;;;;;;10.88;9.88;;;;;;;;;;5056381;28;20036;-72
2023/07/12 05:36:40;;;;;;;11.43;10.27;;;;;;;;;;5056203;28;20024;-72
2023/07/12 05:39:05;;;;;;;10.40;9.40;;;;;;;;;;5055791;28;20032;-74
2023/07/12 05:41:30;;;;;;;10.82;8.50;;;;;;;;;;5047593;28;21179;-75
2023/07/12 05:43:56;;;;;;;10.32;8.57;;;;;;;;;;5059252;28;20041;-74
2023/07/12 05:46:21;;;;;;;9.50;8.60;;;;;;;;;;5059737;28;20025;-75
2023/07/12 05:48:47;;;;;;;9.75;8.70;;;;;;;;;;5051481;28;23668;-72
2023/07/12 05:51:12;;;;;;;11.63;9.23;;;;;;;;;;5053887;28;20060;-71
2023/07/12 05:53:37;;;;;;;9.23;8.32;;;;;;;;;;5060391;28;21134;-73
2023/07/12 05:56:04;;;;;;;9.13;8.30;;;;;;;;;;5050217;28;20073;-73
2023/07/12 05:58:30;;;;;;;9.10;8.27;;;;;;;;;;5054996;28;20035;-70
2023/07/12 06:00:58;;;;;;;10.05;8.25;;;;;;;;;;5050223;28;20040;-72
2023/07/12 06:03:23;;;;;;;10.52;8.27;;;;;;;;;;5053087;28;21169;-71
2023/07/12 06:05:48;;;;;;;9.02;8.13;;;;;;;;;;5050581;28;20096;-71
2023/07/12 06:08:14;;;;;;;9.48;7.95;;;;;;;;;;5056685;28;20049;-71
2023/07/12 06:10:39;;;;;;;9.85;8.18;;;;;;;;;;5049646;28;20042;-71
2023/07/12 06:13:05;;;;;;;9.43;8.40;;;;;;;;;;5051425;28;20104;-71
2023/07/12 06:15:30;;;;;;;11.18;7.88;;;;;;;;;;5049396;28;20411;-71
2023/07/12 06:17:56;;;;;;;10.43;7.78;;;;;;;;;;5055707;28;20103;-73
2023/07/12 06:20:21;;;;;;;9.38;8.05;;;;;;;;;;5057184;28;20638;-71
2023/07/12 06:22:47;;;;;;;9.23;7.90;;;;;;;;;;5059722;28;20028;-71
2023/07/12 06:25:12;;;;;;;8.57;7.57;;;;;;;;;;5054103;28;20042;-71
2023/07/12 06:27:37;;;;;;;9.75;8.40;;;;;;;;;;5046804;28;20031;-71
2023/07/12 06:30:03;;;;;;;9.23;7.70;;;;;;;;;;5045644;28;20063;-71
2023/07/12 06:32:28;;;;;;;9.30;8.27;;;;;;;;;;5048185;28;20032;-71
2023/07/12 06:34:54;;;;;;;10.80;7.25;;;;;;;;;;5046461;28;20371;-71
2023/07/12 06:37:19;;;;;;;8.45;7.65;;;;;;;;;;5048665;28;20035;-71
2023/07/12 06:39:46;;;;;;;11.40;7.90;;;;;;;;;;5048662;28;20510;-73
2023/07/12 06:42:11;;;;;;;8.52;7.68;;;;;;;;;;5063987;28;20720;-71
2023/07/12 06:44:36;;;;;;;9.38;7.95;;;;;;;;;;5048949;28;20868;-71
2023/07/12 06:47:02;;;;;;;10.23;7.85;;;;;;;;;;5048539;28;20091;-71
2023/07/12 06:49:27;;;;;;;11.00;7.00;;;;;;;;;;5046723;28;20040;-71
2023/07/12 06:51:52;;;;;;;8.35;6.80;;;;;;;;;;5047580;28;20032;-73
2023/07/12 06:54:18;;;;;;;8.70;7.90;;;;;;;;;;5048566;28;20074;-75
2023/07/12 06:56:43;;;;;;;8.35;7.50;;;;;;;;;;5048913;28;20048;-73
2023/07/12 06:59:09;;;;;;;10.48;7.60;;;;;;;;;;5048328;28;20043;-75
2023/07/12 07:01:35;;;;;;;9.07;7.22;;;;;;;;;;5049404;28;20074;-74
2023/07/12 07:04:00;;;;;;;10.75;7.40;;;;;;;;;;5047432;28;20036;-73
2023/07/12 07:06:26;;;;;;;7.85;7.05;;;;;;;;;;5048487;28;20035;-73
2023/07/12 07:08:51;;;;;;;9.10;6.90;;;;;;;;;;5047672;28;20036;-74
2023/07/12 07:11:17;;;;;;;9.65;7.25;;;;;;;;;;5047200;28;20032;-75
2023/07/12 07:13:43;;;;;;;11.73;7.75;;;;;;;;;;5049358;28;20337;-74
2023/07/12 07:16:09;;;;;;;8.20;7.03;;;;;;;;;;5048928;28;20025;-75
2023/07/12 07:18:34;;;;;;;9.32;7.15;;;;;;;;;;5048347;28;20024;-73
2023/07/12 07:20:59;;;;;;;7.68;6.88;;;;;;;;;;5048652;28;20043;-75
2023/07/12 07:23:25;;;;;;;10.30;7.35;;;;;;;;;;5049118;28;20443;-74
2023/07/12 07:25:50;;;;;;;10.35;6.90;;;;;;;;;;5048079;28;20108;-74
2023/07/12 07:28:16;;;;;;;8.73;6.78;;;;;;;;;;5048414;28;20432;-75
2023/07/12 07:30:42;;;;;;;13.30;7.18;;;;;;;;;;5049052;28;20124;-75
2023/07/12 07:33:07;;;;;;;14.07;7.45;;;;;;;;;;5049504;28;20421;-75
2023/07/12 07:35:32;;;;;;;9.57;7.30;;;;;;;;;;5057363;28;20441;-77
2023/07/12 07:37:58;;;;;;;11.85;6.80;;;;;;;;;;5059466;28;20028;-75
2023/07/12 07:40:23;;;;;;;10.07;6.80;;;;;;;;;;5055994;28;20020;-74
2023/07/12 07:42:48;;;;;;;7.88;7.03;;;;;;;;;;5052408;28;20020;-75
2023/07/12 07:45:14;;;;;;;13.55;7.78;;;;;;;;;;5053336;28;20032;-74
2023/07/12 07:47:39;;;;;;;8.40;6.78;;;;;;;;;;5045021;28;20121;-74
2023/07/12 07:50:06;;;;;;;9.15;7.00;;;;;;;;;;5042918;28;20033;-76
2023/07/12 07:52:31;;;;;;;8.05;7.25;;;;;;;;;;5047439;28;20035;-74
2023/07/12 07:54:58;;;;;;;10.38;7.18;;;;;;;;;;5051752;28;20056;-74
2023/07/12 07:57:23;;;;;;;8.25;7.20;;;;;;;;;;5047967;28;20448;-74
2023/07/12 07:59:48;;;;;;;9.80;6.47;;;;;;;;;;5047244;28;20414;-75
2023/07/12 08:02:14;;;;;;;7.45;6.72;;;;;;;;;;5046385;28;20095;-75
2023/07/12 08:04:40;;;;;;;8.02;7.22;;;;;;;;;;5040764;28;20020;-74
2023/07/12 08:07:06;;;;;;;7.10;6.40;;;;;;;;;;5041469;28;20110;-75
2023/07/12 08:09:34;;;;;;;12.35;7.22;;;;;;;;;;5047585;28;20402;-75
2023/07/12 08:12:01;;;;;;;6.93;6.17;;;;;;;;;;5047610;28;20032;-75
2023/07/12 08:14:27;;;;;;;7.18;6.47;;;;;;;;;;5046568;28;20028;-74
2023/07/12 08:16:52;;;;;;;10.80;6.75;;;;;;;;;;5047862;28;20382;-73
2023/07/12 08:19:17;;;;;;;8.48;6.65;;;;;;;;;;5046134;28;20398;-75
2023/07/12 08:21:43;;;;;;;8.52;7.00;;;;;;;;;;5044232;28;20086;-73
2023/07/12 08:24:09;;;;;;;10.52;6.80;;;;;;;;;;5047402;28;20035;-73
2023/07/12 08:26:34;;;;;;;7.10;6.40;;;;;;;;;;5046730;28;20112;-75
2023/07/12 08:28:59;;;;;;;6.50;5.82;;;;;;;;;;5062498;28;20031;-75
2023/07/12 08:31:25;;;;;;;9.32;6.85;;;;;;;;;;5044850;28;20039;-75
2023/07/12 08:33:51;;;;;;;9.15;6.82;;;;;;;;;;5059121;28;20024;-76
2023/07/12 08:36:16;;;;;;;7.85;6.45;;;;;;;;;;5058076;28;20028;-76
2023/07/12 08:38:42;;;;;;;9.38;6.70;;;;;;;;;;5061383;28;20024;-76
2023/07/12 08:41:15;;;;;;;10.00;7.10;;;;;;;;;;5052274;28;20449;-75
2023/07/12 08:43:41;;;;;;;7.00;6.30;;;;;;;;;;5049997;28;20051;-75
2023/07/12 08:46:11;;;;;;;8.30;6.30;;;;;;;;;;5046278;28;20039;-74
2023/07/12 08:48:37;;;;;;;6.78;6.10;;;;;;;;;;5046738;28;20021;-76
2023/07/12 08:51:05;;;;;;;7.00;6.30;;;;;;;;;;5056557;28;20024;-76
2023/07/12 08:53:32;;;;;;;9.05;6.78;;;;;;;;;;5058928;28;20076;-75
2023/07/12 08:56:00;;;;;;;8.68;6.60;;;;;;;;;;5058254;28;20040;-75
2023/07/12 08:58:33;;;;;;;8.95;6.10;;;;;;;;;;5058726;28;20032;-77
2023/07/12 09:01:01;;;;;;;7.18;6.03;;;;;;;;;;5050790;28;20032;-76
2023/07/12 09:03:26;;;;;;;7.68;5.68;;;;;;;;;;5054175;28;20017;-76
2023/07/12 09:05:52;;;;;;;7.05;6.35;;;;;;;;;;5048609;28;20364;-76
2023/07/12 09:08:24;;;;;;;8.32;6.35;;;;;;;;;;5045581;28;20084;-77
2023/07/12 09:10:52;;;;;;;6.93;5.78;;;;;;;;;;5047202;28;20037;-76
2023/07/12 09:13:17;;;;;;;10.15;6.03;;;;;;;;;;5046283;28;20140;-76
2023/07/12 09:15:43;;;;;;;8.75;6.03;;;;;;;;;;5045916;28;20503;-75
2023/07/12 09:18:09;;;;;;;10.05;7.15;;;;;;;;;;5045619;28;20328;-76
2023/07/12 09:20:38;;;;;;;8.25;6.40;;;;;;;;;;5042531;28;20399;-75
2023/07/12 09:23:05;;;;;;;7.07;6.38;;;;;;;;;;5038667;28;20086;-76
2023/07/12 09:25:35;;;;;;;10.02;5.95;;;;;;;;;;5044613;28;20033;-76
2023/07/12 09:28:01;;;;;;;7.93;6.05;;;;;;;;;;5053446;28;20042;-74
2023/07/12 09:30:27;;;;;;;14.13;6.10;;;;;;;;;;5067983;28;20355;-72
2023/07/12 09:32:54;;;;;;;9.20;6.32;;;;;;;;;;5070298;28;20036;-74
2023/07/12 09:35:22;;;;;;;10.23;5.97;;;;;;;;;;5064777;28;20052;-72
2023/07/12 09:37:56;;;;;;;8.52;5.95;;;;;;;;;;5058072;28;20033;-73
2023/07/12 09:40:21;;;;;;;9.35;6.22;;;;;;;;;;5058964;28;20051;-75
2023/07/12 09:42:47;;;;;;;11.10;6.60;;;;;;;;;;5055919;28;20456;-75
2023/07/12 09:45:12;;;;;;;10.40;6.07;;;;;;;;;;5059313;28;20383;-72
2023/07/12 09:47:45;;;;;;;11.90;6.63;;;;;;;;;;5051818;28;20031;-72
2023/07/12 09:50:13;;;;;;;7.53;6.03;;;;;;;;;;5051178;28;20116;-76
2023/07/12 09:52:48;;;;;;;9.95;5.72;;;;;;;;;;5045586;28;20032;-74
2023/07/12 09:55:17;;;;;;;7.35;6.47;;;;;;;;;;5051614;28;20024;-75
2023/07/12 09:57:49;;;;;;;9.07;6.75;;;;;;;;;;5047890;28;20023;-72
2023/07/12 10:00:29;;;;;;;7.72;6.10;;;;;;;;;;5044790;28;20032;-73
2023/07/12 10:02:58;;;;;;;7.80;6.15;;;;;;;;;;5044538;28;20420;-75
2023/07/12 10:05:23;;;;;;;6.50;5.63;;;;;;;;;;5038644;28;20818;-75
2023/07/12 10:07:53;;;;;;;9.75;5.82;;;;;;;;;;5040277;28;20057;-75
2023/07/12 10:10:28;;;;;;;6.97;6.30;;;;;;;;;;5043581;28;20029;-75
2023/07/12 10:13:06;;;;;;;7.50;6.22;;;;;;;;;;5045104;28;20021;-75
2023/07/12 10:15:33;;;;;;;6.40;5.43;;;;;;;;;;5045904;28;20024;-73
2023/07/12 10:17:58;;;;;;;6.63;5.90;;;;;;;;;;5054585;28;20253;-78
2023/07/12 10:20:24;;;;;;;6.47;5.75;;;;;;;;;;5053163;28;20402;-75
2023/07/12 10:22:50;;;;;;;6.68;5.82;;;;;;;;;;5045047;28;20032;-73
2023/07/12 10:25:24;;;;;;;8.27;6.35;;;;;;;;;;5042343;28;20025;-75
2023/07/12 10:27:59;;;;;;;7.65;5.78;;;;;;;;;;5042889;28;20879;-76
2023/07/12 10:30:25;;;;;;;8.23;6.18;;;;;;;;;;5044047;28;20028;-75
2023/07/12 10:33:03;;;;;;;7.22;6.28;;;;;;;;;;5045512;28;21093;-73
2023/07/12 10:35:38;;;;;;;8.57;5.97;;;;;;;;;;5046462;28;20029;-73
2023/07/12 10:38:06;;;;;;;7.28;6.07;;;;;;;;;;5047658;28;20313;-75
2023/07/12 10:40:51;;;;;;;7.43;6.15;;;;;;;;;;5049642;28;20028;-75
2023/07/12 10:43:20;;;;;;;7.15;5.85;;;;;;;;;;5052415;28;20040;-77
2023/07/12 10:45:45;;;;;;;;;;;;;;;;;;5071289;28;20033;-77
2023/07/12 10:48:17;;;;;;;9.30;5.80;;;;;;;;;;5058955;28;19943;-75
2023/07/12 10:50:48;;;;;;;7.10;5.63;;;;;;;;;;5060459;28;20289;-76
2023/07/12 10:53:24;;;;;;;7.13;5.25;;;;;;;;;;5056389;28;20353;-76
2023/07/12 10:56:08;;;;;;;7.68;5.47;;;;;;;;;;5048335;28;20028;-76
2023/07/12 10:58:53;;;;;;;8.13;5.72;;;;;;;;;;5049412;28;20036;-75
2023/07/12 11:01:40;;;;;;;6.97;5.78;;;;;;;;;;5049052;28;20075;-77
2023/07/12 11:04:07;;;;;;;8.02;5.70;;;;;;;;;;5062617;28;20023;-78
2023/07/12 11:06:33;;;;;;;6.00;5.28;;;;;;;;;;5047877;28;20111;-77
2023/07/12 11:08:58;;;;;;;6.78;5.82;;;;;;;;;;5044924;28;20155;-77
2023/07/12 11:11:28;;;;;;;8.93;5.83;;;;;;;;;;5049593;28;20035;-77
2023/07/12 11:13:59;;;;;;;7.97;5.90;;;;;;;;;;5051862;28;20272;-76
2023/07/12 11:16:26;;;;;;;9.48;5.95;;;;;;;;;;5047898;28;20455;-77
2023/07/12 11:18:54;;;;;;;6.22;5.07;;;;;;;;;;5051685;28;20036;-76
2023/07/12 11:21:28;;;;;;;8.88;5.75;;;;;;;;;;5047292;28;20020;-75
2023/07/12 11:23:54;;;;;;;5.78;5.18;;;;;;;;;;5055229;28;20028;-77
2023/07/12 11:26:26;;;;;;;7.65;5.57;;;;;;;;;;5058791;28;20032;-76
2023/07/12 11:28:52;;;;;;;7.25;5.53;;;;;;;;;;5057827;28;20732;-75
2023/07/12 11:31:26;;;;;;;7.45;5.40;;;;;;;;;;5057870;28;20024;-76
2023/07/12 11:34:10;;;;;;;7.38;4.97;;;;;;;;;;5054399;28;20136;-76
2023/07/12 11:36:36;;;;;;;7.60;5.22;;;;;;;;;;5061332;28;20048;-76
2023/07/12 11:39:02;;;;;;;6.78;5.50;;;;;;;;;;5052638;28;21082;-76
2023/07/12 11:41:29;;;;;;;9.65;5.32;;;;;;;;;;5045309;28;20357;-74
2023/07/12 11:44:01;;;;;;;6.53;5.45;;;;;;;;;;5043213;28;20017;-76
2023/07/12 11:46:33;;;;;;;6.20;5.35;;;;;;;;;;5046678;28;20451;-77
2023/07/12 11:49:12;;;;;;;5.82;5.30;;;;;;;;;;5042243;28;20093;-76
2023/07/12 11:51:39;;;;;;;5.90;5.30;;;;;;;;;;5045653;28;21430;-76
2023/07/12 11:54:30;;;;;;;7.05;5.40;;;;;;;;;;5046149;28;20035;-76
2023/07/12 11:56:58;;;;;;;6.13;4.65;;;;;;;;;;5050231;28;20459;-77
2023/07/12 11:59:24;;;;;;;7.03;5.23;;;;;;;;;;5059828;28;20024;-77
2023/07/12 12:01:50;;;;;;;6.75;5.10;;;;;;;;;;5060412;28;20033;-76
2023/07/12 12:04:21;;;;;;;7.15;5.32;;;;;;;;;;5062226;28;23052;-77
2023/07/12 12:06:47;;;;;;;6.25;4.80;;;;;;;;;;5059032;28;20105;-77
2023/07/12 12:09:12;;;;;;;7.13;4.93;;;;;;;;;;5062933;28;20024;-77
2023/07/12 12:11:39;;;;;;;9.60;4.82;;;;;;;;;;5053972;28;20040;-76
2023/07/12 12:14:05;;;;;;;5.55;4.78;;;;;;;;;;5053983;28;20082;-76
2023/07/12 12:16:31;;;;;;;6.45;5.30;;;;;;;;;;5049912;28;20435;-76
2023/07/12 12:18:58;;;;;;;6.82;5.28;;;;;;;;;;5049056;28;20035;-74
2023/07/12 12:21:24;;;;;;;6.97;6.00;;;;;;;;;;5045249;28;20048;-75
2023/07/12 12:23:54;;;;;;;6.47;5.57;;;;;;;;;;5046155;28;20356;-76
2023/07/12 12:26:23;;;;;;;6.40;5.50;;;;;;;;;;5045626;28;20096;-76
2023/07/12 12:28:48;;;;;;;;;;;;;;;;;;5044149;28;20032;-77
2023/07/12 12:31:13;;;;;;;5.53;4.97;;;;;;;;;;5047164;28;20861;-77
2023/07/12 12:33:43;;;;;;;9.00;5.53;;;;;;;;;;5048288;28;20037;-77
2023/07/12 12:36:13;;;;;;;6.57;5.10;;;;;;;;;;5052526;28;20032;-76
2023/07/12 12:38:39;;;;;;;8.35;5.30;;;;;;;;;;5054331;28;20060;-77
2023/07/12 12:41:13;;;;;;;7.82;5.40;;;;;;;;;;5053529;28;21171;-78
2023/07/12 12:43:57;;;;;;;5.20;4.70;;;;;;;;;;5050317;28;20027;-75
2023/07/12 12:46:22;;;;;;;5.75;4.82;;;;;;;;;;5058136;28;20125;-76
2023/07/12 12:48:54;;;;;;;7.03;4.70;;;;;;;;;;5053348;28;20103;-76
2023/07/12 12:51:19;;;;;;;5.90;4.38;;;;;;;;;;5050765;28;20429;-76
2023/07/12 12:53:44;;;;;;;7.60;4.90;;;;;;;;;;5059182;28;20032;-77
2023/07/12 12:56:13;;;;;;;6.80;4.50;;;;;;;;;;5060183;28;20025;-77
2023/07/12 12:58:39;;;;;;;4.82;4.38;;;;;;;;;;5050750;28;20028;-77
2023/07/12 13:01:04;;;;;;;5.53;4.57;;;;;;;;;;5046588;28;20048;-76
2023/07/12 13:03:30;;;;;;;8.18;4.35;;;;;;;;;;5046805;28;20028;-78
2023/07/12 13:05:55;;;;;;;5.93;4.78;;;;;;;;;;5050044;28;20028;-76
2023/07/12 13:08:20;;;;;;;5.45;4.45;;;;;;;;;;5048658;28;20067;-75
2023/07/12 13:10:46;;;;;;;7.28;4.45;;;;;;;;;;5056817;28;20038;-77
2023/07/12 13:13:16;;;;;;;6.00;5.18;;;;;;;;;;5046729;28;20036;-77
2023/07/12 13:15:41;;;;;;;5.25;4.75;;;;;;;;;;5065230;28;20029;-77
2023/07/12 13:18:10;;;;;;;5.57;4.95;;;;;;;;;;5059915;28;20333;-77
2023/07/12 13:20:35;;;;;;;6.90;5.00;;;;;;;;;;5059562;28;20044;-76
2023/07/12 13:23:00;;;;;;;6.63;4.40;;;;;;;;;;5056967;28;20036;-77
2023/07/12 13:25:26;;;;;;;6.00;5.05;;;;;;;;;;5049731;28;20075;-78
2023/07/12 13:27:54;;;;;;;6.60;5.43;;;;;;;;;;5048163;28;20052;-75
2023/07/12 13:30:20;;;;;;;5.28;4.20;;;;;;;;;;5047652;28;20367;-77
2023/07/12 13:32:45;;;;;;;8.10;4.72;;;;;;;;;;5045248;28;20029;-76
2023/07/12 13:35:17;;;;;;;5.20;4.43;;;;;;;;;;5045344;28;20459;-75
2023/07/12 13:37:43;;;;;;;6.88;4.40;;;;;;;;;;5056103;28;20115;-75
2023/07/12 13:40:16;;;;;;;7.03;4.25;;;;;;;;;;5046201;28;20530;-77
2023/07/12 13:42:43;;;;;;;6.03;4.70;;;;;;;;;;5046498;28;20431;-76
2023/07/12 13:45:10;;;;;;;10.25;5.18;;;;;;;;;;5045702;28;20029;-76
2023/07/12 13:47:35;;;;;;;6.07;4.10;;;;;;;;;;5046039;28;20063;-75
2023/07/12 13:50:03;;;;;;;5.10;4.47;;;;;;;;;;5047071;28;20028;-76
2023/07/12 13:52:31;;;;;;;7.38;4.65;;;;;;;;;;5047026;28;20039;-77
2023/07/12 13:54:57;;;;;;;6.05;4.68;;;;;;;;;;5045965;28;20493;-74
2023/07/12 13:57:24;;;;;;;6.88;4.35;;;;;;;;;;5045650;28;20027;-77
2023/07/12 13:59:49;;;;;;;5.85;4.60;;;;;;;;;;5046324;28;20432;-75
2023/07/12 14:02:18;;;;;;;6.57;4.43;;;;;;;;;;5040290;28;20090;-76
2023/07/12 14:04:43;;;;;;;;;;;;;;;;;;5046269;28;20494;-76
2023/07/12 14:07:10;;;;;;;6.53;4.60;;;;;;;;;;5049239;28;19924;-75
2023/07/12 14:09:35;;;;;;;7.18;4.78;;;;;;;;;;5064876;28;20087;-76
2023/07/12 14:12:01;;;;;;;8.02;5.40;;;;;;;;;;5062696;28;20106;-76
2023/07/12 14:14:26;;;;;;;9.40;4.90;;;;;;;;;;5059084;28;20025;-76
2023/07/12 14:16:52;;;;;;;10.60;5.22;;;;;;;;;;5061866;28;20040;-75
2023/07/12 14:19:17;;;;;;;7.97;4.78;;;;;;;;;;5062124;28;20017;-78
2023/07/12 14:21:42;;;;;;;17.48;5.65;;;;;;;;;;5051308;28;20032;-78
2023/07/12 14:24:09;;;;;;;8.57;5.00;;;;;;;;;;5062427;28;21847;-76
2023/07/12 14:26:34;;;;;;;10.27;5.15;;;;;;;;;;5062659;28;20032;-75
2023/07/12 14:29:00;;;;;;;9.30;4.82;;;;;;;;;;5060374;28;20024;-78
2023/07/12 14:31:25;;;;;;;8.13;5.07;;;;;;;;;;5062712;28;20033;-75
2023/07/12 14:33:52;;;;;;;9.90;5.28;;;;;;;;;;5063933;28;20404;-78